sensor_id;sensor_type;location;lat;lon;timestamp;temperature;humidity
3069;DHT22;1545;51.728;8.796;2024-02-14T00:01:33;6.60;95.60
3069;DHT22;1545;51.728;8.796;2024-02-14T00:04:03;6.60;95.60
3069;DHT22;1545;51.728;8.796;2024-02-14T00:06:28;6.60;95.40
3069;DHT22;1545;51.728;8.796;2024-02-14T00:08:54;6.70;95.10
3069;DHT22;1545;51.728;8.796;2024-02-14T00:11:19;6.80;95.10
3069;DHT22;1545;51.728;8.796;2024-02-14T00:13:45;6.80;94.70
3069;DHT22;1545;51.728;8.796;2024-02-14T00:16:10;6.90;94.60
3069;DHT22;1545;51.728;8.796;2024-02-14T00:18:36;6.90;94.50
3069;DHT22;1545;51.728;8.796;2024-02-14T00:21:01;6.90;94.50
3069;DHT22;1545;51.728;8.796;2024-02-14T00:23:27;7.00;94.40
3069;DHT22;1545;51.728;8.796;2024-02-14T00:25:52;7.00;94.00
3069;DHT22;1545;51.728;8.796;2024-02-14T00:28:18;7.00;93.70
3069;DHT22;1545;51.728;8.796;2024-02-14T00:30:43;7.10;93.50
3069;DHT22;1545;51.728;8.796;2024-02-14T00:33:09;7.10;93.80
3069;DHT22;1545;51.728;8.796;2024-02-14T00:35:34;7.20;93.60
3069;DHT22;1545;51.728;8.796;2024-02-14T00:37:59;7.20;93.80
3069;DHT22;1545;51.728;8.796;2024-02-14T00:40:25;7.10;93.60
3069;DHT22;1545;51.728;8.796;2024-02-14T00:42:50;7.10;93.50
3069;DHT22;1545;51.728;8.796;2024-02-14T00:45:16;7.20;93.40
3069;DHT22;1545;51.728;8.796;2024-02-14T00:47:41;7.10;93.20
3069;DHT22;1545;51.728;8.796;2024-02-14T00:50:07;7.20;93.40
3069;DHT22;1545;51.728;8.796;2024-02-14T00:52:33;7.20;93.30
3069;DHT22;1545;51.728;8.796;2024-02-14T00:54:58;7.20;93.30
3069;DHT22;1545;51.728;8.796;2024-02-14T00:57:24;7.20;93.20
3069;DHT22;1545;51.728;8.796;2024-02-14T00:59:52;7.20;93.10
3069;DHT22;1545;51.728;8.796;2024-02-14T01:02:18;7.20;93.00
3069;DHT22;1545;51.728;8.796;2024-02-14T01:04:43;7.30;93.20
3069;DHT22;1545;51.728;8.796;2024-02-14T01:07:09;7.30;93.30
3069;DHT22;1545;51.728;8.796;2024-02-14T01:09:34;7.30;93.20
3069;DHT22;1545;51.728;8.796;2024-02-14T01:12:02;7.30;93.10
3069;DHT22;1545;51.728;8.796;2024-02-14T01:14:27;7.30;93.20
3069;DHT22;1545;51.728;8.796;2024-02-14T01:16:53;7.30;93.00
3069;DHT22;1545;51.728;8.796;2024-02-14T01:19:19;7.30;93.20
3069;DHT22;1545;51.728;8.796;2024-02-14T01:21:45;7.30;93.00
3069;DHT22;1545;51.728;8.796;2024-02-14T01:24:14;7.30;93.30
3069;DHT22;1545;51.728;8.796;2024-02-14T01:26:39;7.30;92.90
3069;DHT22;1545;51.728;8.796;2024-02-14T01:29:05;7.30;93.10
3069;DHT22;1545;51.728;8.796;2024-02-14T01:31:31;7.40;93.20
3069;DHT22;1545;51.728;8.796;2024-02-14T01:33:57;7.40;93.30
3069;DHT22;1545;51.728;8.796;2024-02-14T01:36:24;7.40;93.20
3069;DHT22;1545;51.728;8.796;2024-02-14T01:38:49;7.30;93.10
3069;DHT22;1545;51.728;8.796;2024-02-14T01:41:15;7.40;93.30
3069;DHT22;1545;51.728;8.796;2024-02-14T01:43:40;7.40;93.40
3069;DHT22;1545;51.728;8.796;2024-02-14T01:46:07;7.30;93.20
3069;DHT22;1545;51.728;8.796;2024-02-14T01:48:34;7.40;93.50
3069;DHT22;1545;51.728;8.796;2024-02-14T01:51:00;7.40;93.80
3069;DHT22;1545;51.728;8.796;2024-02-14T01:53:27;7.40;93.30
3069;DHT22;1545;51.728;8.796;2024-02-14T01:55:58;7.40;93.60
3069;DHT22;1545;51.728;8.796;2024-02-14T01:58:24;7.50;93.60
3069;DHT22;1545;51.728;8.796;2024-02-14T02:00:51;7.50;94.00
3069;DHT22;1545;51.728;8.796;2024-02-14T02:03:21;7.50;94.30
3069;DHT22;1545;51.728;8.796;2024-02-14T02:05:48;7.50;94.70
3069;DHT22;1545;51.728;8.796;2024-02-14T02:08:14;7.50;95.60
3069;DHT22;1545;51.728;8.796;2024-02-14T02:10:40;7.40;96.40
3069;DHT22;1545;51.728;8.796;2024-02-14T02:13:05;7.40;97.20
3069;DHT22;1545;51.728;8.796;2024-02-14T02:15:31;7.40;97.50
3069;DHT22;1545;51.728;8.796;2024-02-14T02:17:57;7.30;97.80
3069;DHT22;1545;51.728;8.796;2024-02-14T02:20:22;7.40;97.90
3069;DHT22;1545;51.728;8.796;2024-02-14T02:22:48;7.40;98.20
3069;DHT22;1545;51.728;8.796;2024-02-14T02:25:14;7.50;98.50
3069;DHT22;1545;51.728;8.796;2024-02-14T02:27:39;7.50;98.80
3069;DHT22;1545;51.728;8.796;2024-02-14T02:30:06;7.50;98.80
3069;DHT22;1545;51.728;8.796;2024-02-14T02:32:32;7.50;98.80
3069;DHT22;1545;51.728;8.796;2024-02-14T02:34:57;7.60;98.80
3069;DHT22;1545;51.728;8.796;2024-02-14T02:37:24;7.60;98.80
3069;DHT22;1545;51.728;8.796;2024-02-14T02:39:49;7.70;98.80
3069;DHT22;1545;51.728;8.796;2024-02-14T02:42:16;7.70;98.60
3069;DHT22;1545;51.728;8.796;2024-02-14T02:44:46;7.80;98.40
3069;DHT22;1545;51.728;8.796;2024-02-14T02:47:11;7.80;98.30
3069;DHT22;1545;51.728;8.796;2024-02-14T02:49:38;7.80;98.30
3069;DHT22;1545;51.728;8.796;2024-02-14T02:52:03;7.90;98.40
3069;DHT22;1545;51.728;8.796;2024-02-14T02:54:29;7.90;98.50
3069;DHT22;1545;51.728;8.796;2024-02-14T02:56:54;8.00;98.40
3069;DHT22;1545;51.728;8.796;2024-02-14T02:59:20;8.00;98.10
3069;DHT22;1545;51.728;8.796;2024-02-14T03:01:45;8.10;98.00
3069;DHT22;1545;51.728;8.796;2024-02-14T03:04:11;8.10;97.90
3069;DHT22;1545;51.728;8.796;2024-02-14T03:20:07;8.40;97.10
3069;DHT22;1545;51.728;8.796;2024-02-14T03:22:40;8.40;97.20
3069;DHT22;1545;51.728;8.796;2024-02-14T03:25:13;8.40;96.90
3069;DHT22;1545;51.728;8.796;2024-02-14T03:27:39;8.60;96.70
3069;DHT22;1545;51.728;8.796;2024-02-14T03:30:05;8.60;96.70
3069;DHT22;1545;51.728;8.796;2024-02-14T03:32:31;8.70;96.30
3069;DHT22;1545;51.728;8.796;2024-02-14T03:34:57;8.80;96.00
3069;DHT22;1545;51.728;8.796;2024-02-14T03:37:22;8.80;95.90
3069;DHT22;1545;51.728;8.796;2024-02-14T03:39:47;8.80;95.70
3069;DHT22;1545;51.728;8.796;2024-02-14T03:42:13;8.80;95.60
3069;DHT22;1545;51.728;8.796;2024-02-14T03:44:39;8.80;95.70
3069;DHT22;1545;51.728;8.796;2024-02-14T03:47:06;8.80;95.70
3069;DHT22;1545;51.728;8.796;2024-02-14T03:49:31;8.80;95.60
3069;DHT22;1545;51.728;8.796;2024-02-14T03:51:56;8.80;95.70
3069;DHT22;1545;51.728;8.796;2024-02-14T03:54:22;8.90;95.80
3069;DHT22;1545;51.728;8.796;2024-02-14T03:56:48;8.80;96.10
3069;DHT22;1545;51.728;8.796;2024-02-14T03:59:14;8.90;96.00
3069;DHT22;1545;51.728;8.796;2024-02-14T04:01:44;8.90;96.20
3069;DHT22;1545;51.728;8.796;2024-02-14T04:04:10;8.80;96.20
3069;DHT22;1545;51.728;8.796;2024-02-14T04:06:35;8.80;96.30
3069;DHT22;1545;51.728;8.796;2024-02-14T04:09:01;8.90;96.10
3069;DHT22;1545;51.728;8.796;2024-02-14T04:11:27;8.90;96.10
3069;DHT22;1545;51.728;8.796;2024-02-14T04:13:52;8.90;96.30
3069;DHT22;1545;51.728;8.796;2024-02-14T04:16:21;8.90;96.30
3069;DHT22;1545;51.728;8.796;2024-02-14T04:18:47;8.90;96.30
3069;DHT22;1545;51.728;8.796;2024-02-14T04:21:12;8.90;96.30
3069;DHT22;1545;51.728;8.796;2024-02-14T04:23:38;8.90;96.40
3069;DHT22;1545;51.728;8.796;2024-02-14T04:26:05;8.90;96.30
3069;DHT22;1545;51.728;8.796;2024-02-14T04:28:31;8.90;96.40
3069;DHT22;1545;51.728;8.796;2024-02-14T04:30:56;9.00;96.60
3069;DHT22;1545;51.728;8.796;2024-02-14T04:33:22;9.00;96.50
3069;DHT22;1545;51.728;8.796;2024-02-14T04:35:47;9.00;96.40
3069;DHT22;1545;51.728;8.796;2024-02-14T04:38:13;9.00;96.60
3069;DHT22;1545;51.728;8.796;2024-02-14T04:40:38;9.00;96.50
3069;DHT22;1545;51.728;8.796;2024-02-14T04:43:05;9.00;96.60
3069;DHT22;1545;51.728;8.796;2024-02-14T04:45:30;9.00;96.70
3069;DHT22;1545;51.728;8.796;2024-02-14T04:47:56;9.00;96.80
3069;DHT22;1545;51.728;8.796;2024-02-14T04:50:21;9.00;96.90
3069;DHT22;1545;51.728;8.796;2024-02-14T04:52:46;9.00;97.00
3069;DHT22;1545;51.728;8.796;2024-02-14T04:55:12;9.00;97.00
3069;DHT22;1545;51.728;8.796;2024-02-14T04:57:38;9.00;97.30
3069;DHT22;1545;51.728;8.796;2024-02-14T05:00:04;9.00;97.50
3069;DHT22;1545;51.728;8.796;2024-02-14T05:02:30;9.00;97.80
3069;DHT22;1545;51.728;8.796;2024-02-14T05:04:56;9.00;97.90
3069;DHT22;1545;51.728;8.796;2024-02-14T05:07:22;9.00;97.90
3069;DHT22;1545;51.728;8.796;2024-02-14T05:09:47;9.00;97.90
3069;DHT22;1545;51.728;8.796;2024-02-14T05:12:15;9.00;98.10
3069;DHT22;1545;51.728;8.796;2024-02-14T05:14:41;9.10;97.90
3069;DHT22;1545;51.728;8.796;2024-02-14T05:17:07;9.10;98.00
3069;DHT22;1545;51.728;8.796;2024-02-14T05:19:33;9.10;97.90
3069;DHT22;1545;51.728;8.796;2024-02-14T05:21:58;9.10;98.10
3069;DHT22;1545;51.728;8.796;2024-02-14T05:24:24;9.10;98.10
3069;DHT22;1545;51.728;8.796;2024-02-14T05:26:52;9.10;98.20
3069;DHT22;1545;51.728;8.796;2024-02-14T05:29:18;9.10;98.20
3069;DHT22;1545;51.728;8.796;2024-02-14T05:31:47;9.20;98.20
3069;DHT22;1545;51.728;8.796;2024-02-14T05:34:14;9.20;98.30
3069;DHT22;1545;51.728;8.796;2024-02-14T05:36:39;9.20;98.30
3069;DHT22;1545;51.728;8.796;2024-02-14T05:39:05;9.20;98.40
3069;DHT22;1545;51.728;8.796;2024-02-14T05:41:34;9.30;98.50
3069;DHT22;1545;51.728;8.796;2024-02-14T05:44:00;9.30;98.60
3069;DHT22;1545;51.728;8.796;2024-02-14T05:46:25;9.30;98.70
3069;DHT22;1545;51.728;8.796;2024-02-14T05:48:51;9.40;98.70
3069;DHT22;1545;51.728;8.796;2024-02-14T05:51:20;9.40;98.80
3069;DHT22;1545;51.728;8.796;2024-02-14T05:53:45;9.40;98.60
3069;DHT22;1545;51.728;8.796;2024-02-14T05:56:11;9.40;98.60
3069;DHT22;1545;51.728;8.796;2024-02-14T05:58:36;9.40;98.70
3069;DHT22;1545;51.728;8.796;2024-02-14T06:01:01;9.50;98.30
3069;DHT22;1545;51.728;8.796;2024-02-14T06:03:27;9.40;98.20
3069;DHT22;1545;51.728;8.796;2024-02-14T06:05:53;9.50;98.20
3069;DHT22;1545;51.728;8.796;2024-02-14T06:08:18;9.50;98.30
3069;DHT22;1545;51.728;8.796;2024-02-14T06:10:44;9.40;98.60
3069;DHT22;1545;51.728;8.796;2024-02-14T06:13:10;9.40;98.80
3069;DHT22;1545;51.728;8.796;2024-02-14T06:15:35;9.40;98.80
3069;DHT22;1545;51.728;8.796;2024-02-14T06:18:01;9.40;98.80
3069;DHT22;1545;51.728;8.796;2024-02-14T06:20:26;9.40;98.80
3069;DHT22;1545;51.728;8.796;2024-02-14T06:22:52;9.30;98.80
3069;DHT22;1545;51.728;8.796;2024-02-14T06:25:17;9.30;98.80
3069;DHT22;1545;51.728;8.796;2024-02-14T06:27:43;9.30;98.80
3069;DHT22;1545;51.728;8.796;2024-02-14T06:30:08;9.30;98.80
3069;DHT22;1545;51.728;8.796;2024-02-14T06:32:34;9.20;98.80
3069;DHT22;1545;51.728;8.796;2024-02-14T06:35:00;9.30;98.80
3069;DHT22;1545;51.728;8.796;2024-02-14T06:37:25;9.30;98.80
3069;DHT22;1545;51.728;8.796;2024-02-14T06:39:51;9.40;98.80
3069;DHT22;1545;51.728;8.796;2024-02-14T06:42:17;9.50;98.80
3069;DHT22;1545;51.728;8.796;2024-02-14T06:44:42;9.60;98.80
3069;DHT22;1545;51.728;8.796;2024-02-14T06:47:08;9.60;98.80
3069;DHT22;1545;51.728;8.796;2024-02-14T06:49:33;9.70;98.80
3069;DHT22;1545;51.728;8.796;2024-02-14T06:51:59;9.70;98.80
3069;DHT22;1545;51.728;8.796;2024-02-14T06:54:24;9.70;98.80
3069;DHT22;1545;51.728;8.796;2024-02-14T06:56:50;9.70;98.80
3069;DHT22;1545;51.728;8.796;2024-02-14T06:59:15;9.70;98.80
3069;DHT22;1545;51.728;8.796;2024-02-14T07:01:41;9.70;98.80
3069;DHT22;1545;51.728;8.796;2024-02-14T07:04:06;9.70;98.80
3069;DHT22;1545;51.728;8.796;2024-02-14T07:06:32;9.70;98.80
3069;DHT22;1545;51.728;8.796;2024-02-14T07:08:57;9.80;98.80
3069;DHT22;1545;51.728;8.796;2024-02-14T07:11:23;9.80;98.80
3069;DHT22;1545;51.728;8.796;2024-02-14T07:13:49;9.80;98.80
3069;DHT22;1545;51.728;8.796;2024-02-14T07:16:15;9.90;98.80
3069;DHT22;1545;51.728;8.796;2024-02-14T07:18:40;9.90;98.80
3069;DHT22;1545;51.728;8.796;2024-02-14T07:21:06;10.00;98.80
3069;DHT22;1545;51.728;8.796;2024-02-14T07:23:32;10.00;98.80
3069;DHT22;1545;51.728;8.796;2024-02-14T07:25:59;10.00;98.80
3069;DHT22;1545;51.728;8.796;2024-02-14T07:28:24;10.10;98.80
3069;DHT22;1545;51.728;8.796;2024-02-14T07:30:50;10.10;98.70
3069;DHT22;1545;51.728;8.796;2024-02-14T07:33:15;10.10;98.30
3069;DHT22;1545;51.728;8.796;2024-02-14T07:35:41;10.10;98.40
3069;DHT22;1545;51.728;8.796;2024-02-14T07:38:08;10.10;98.40
3069;DHT22;1545;51.728;8.796;2024-02-14T07:40:33;10.20;98.40
3069;DHT22;1545;51.728;8.796;2024-02-14T07:43:00;10.20;98.70
3069;DHT22;1545;51.728;8.796;2024-02-14T07:45:26;10.20;98.40
3069;DHT22;1545;51.728;8.796;2024-02-14T07:47:52;10.30;98.40
3069;DHT22;1545;51.728;8.796;2024-02-14T07:50:18;10.30;98.30
3069;DHT22;1545;51.728;8.796;2024-02-14T07:52:44;10.40;98.30
3069;DHT22;1545;51.728;8.796;2024-02-14T07:55:10;10.40;98.10
3069;DHT22;1545;51.728;8.796;2024-02-14T07:57:38;10.40;98.10
3069;DHT22;1545;51.728;8.796;2024-02-14T08:00:05;10.50;98.10
3069;DHT22;1545;51.728;8.796;2024-02-14T08:02:30;10.50;98.10
3069;DHT22;1545;51.728;8.796;2024-02-14T08:04:56;10.60;98.10
3069;DHT22;1545;51.728;8.796;2024-02-14T08:07:21;10.60;97.90
3069;DHT22;1545;51.728;8.796;2024-02-14T08:09:47;10.60;98.10
3069;DHT22;1545;51.728;8.796;2024-02-14T08:12:12;10.60;98.10
3069;DHT22;1545;51.728;8.796;2024-02-14T08:14:38;10.70;98.20
3069;DHT22;1545;51.728;8.796;2024-02-14T08:17:03;10.70;98.10
3069;DHT22;1545;51.728;8.796;2024-02-14T08:19:29;10.70;97.90
3069;DHT22;1545;51.728;8.796;2024-02-14T08:21:54;10.80;97.90
3069;DHT22;1545;51.728;8.796;2024-02-14T08:24:25;10.80;97.80
3069;DHT22;1545;51.728;8.796;2024-02-14T08:26:50;10.90;97.90
3069;DHT22;1545;51.728;8.796;2024-02-14T08:29:16;10.80;98.10
3069;DHT22;1545;51.728;8.796;2024-02-14T08:31:41;10.90;98.00
3069;DHT22;1545;51.728;8.796;2024-02-14T08:34:07;10.80;98.20
3069;DHT22;1545;51.728;8.796;2024-02-14T08:36:33;10.80;98.10
3069;DHT22;1545;51.728;8.796;2024-02-14T08:39:00;10.90;98.10
3069;DHT22;1545;51.728;8.796;2024-02-14T08:41:26;10.90;98.20
3069;DHT22;1545;51.728;8.796;2024-02-14T08:43:52;10.90;97.90
3069;DHT22;1545;51.728;8.796;2024-02-14T08:46:17;11.00;97.50
3069;DHT22;1545;51.728;8.796;2024-02-14T08:48:43;11.00;97.30
3069;DHT22;1545;51.728;8.796;2024-02-14T08:51:12;11.10;97.20
3069;DHT22;1545;51.728;8.796;2024-02-14T08:53:38;11.20;97.00
3069;DHT22;1545;51.728;8.796;2024-02-14T08:56:04;11.20;97.00
3069;DHT22;1545;51.728;8.796;2024-02-14T08:58:29;11.20;96.90
3069;DHT22;1545;51.728;8.796;2024-02-14T09:00:55;11.20;97.10
3069;DHT22;1545;51.728;8.796;2024-02-14T09:03:20;11.20;97.20
3069;DHT22;1545;51.728;8.796;2024-02-14T09:05:46;11.20;97.30
3069;DHT22;1545;51.728;8.796;2024-02-14T09:08:12;11.20;97.20
3069;DHT22;1545;51.728;8.796;2024-02-14T09:10:38;11.30;97.30
3069;DHT22;1545;51.728;8.796;2024-02-14T09:13:04;11.30;97.00
3069;DHT22;1545;51.728;8.796;2024-02-14T09:15:29;11.30;97.00
3069;DHT22;1545;51.728;8.796;2024-02-14T09:17:56;11.30;97.60
3069;DHT22;1545;51.728;8.796;2024-02-14T09:20:22;11.30;97.70
3069;DHT22;1545;51.728;8.796;2024-02-14T09:22:47;11.30;97.90
3069;DHT22;1545;51.728;8.796;2024-02-14T09:25:13;11.30;98.60
3069;DHT22;1545;51.728;8.796;2024-02-14T09:27:40;11.20;98.80
3069;DHT22;1545;51.728;8.796;2024-02-14T09:30:07;11.20;98.80
3069;DHT22;1545;51.728;8.796;2024-02-14T09:32:33;11.20;98.80
3069;DHT22;1545;51.728;8.796;2024-02-14T09:34:59;11.20;98.80
3069;DHT22;1545;51.728;8.796;2024-02-14T09:37:25;11.20;98.80
3069;DHT22;1545;51.728;8.796;2024-02-14T09:39:50;11.20;98.80
3069;DHT22;1545;51.728;8.796;2024-02-14T09:42:19;11.30;98.80
3069;DHT22;1545;51.728;8.796;2024-02-14T09:44:51;11.30;98.70
3069;DHT22;1545;51.728;8.796;2024-02-14T09:47:18;11.20;98.40
3069;DHT22;1545;51.728;8.796;2024-02-14T09:49:44;11.20;98.10
3069;DHT22;1545;51.728;8.796;2024-02-14T09:52:11;11.20;98.10
3069;DHT22;1545;51.728;8.796;2024-02-14T09:54:38;11.30;98.10
3069;DHT22;1545;51.728;8.796;2024-02-14T09:57:04;11.30;98.00
3069;DHT22;1545;51.728;8.796;2024-02-14T09:59:31;11.40;97.80
3069;DHT22;1545;51.728;8.796;2024-02-14T10:01:57;11.60;97.50
3069;DHT22;1545;51.728;8.796;2024-02-14T10:04:22;11.60;97.20
3069;DHT22;1545;51.728;8.796;2024-02-14T10:06:50;11.60;96.70
3069;DHT22;1545;51.728;8.796;2024-02-14T10:09:22;11.60;96.80
3069;DHT22;1545;51.728;8.796;2024-02-14T10:11:48;11.70;96.60
3069;DHT22;1545;51.728;8.796;2024-02-14T10:14:14;11.70;96.50
3069;DHT22;1545;51.728;8.796;2024-02-14T10:16:40;11.70;96.40
3069;DHT22;1545;51.728;8.796;2024-02-14T10:19:17;11.80;96.10
3069;DHT22;1545;51.728;8.796;2024-02-14T10:21:43;11.80;96.10
3069;DHT22;1545;51.728;8.796;2024-02-14T10:24:08;11.80;96.10
3069;DHT22;1545;51.728;8.796;2024-02-14T10:26:39;11.90;95.90
3069;DHT22;1545;51.728;8.796;2024-02-14T10:29:06;11.90;95.90
3069;DHT22;1545;51.728;8.796;2024-02-14T10:31:31;11.90;95.80
3069;DHT22;1545;51.728;8.796;2024-02-14T10:33:57;12.00;95.80
3069;DHT22;1545;51.728;8.796;2024-02-14T10:36:23;12.00;96.00
3069;DHT22;1545;51.728;8.796;2024-02-14T10:38:50;12.10;95.90
3069;DHT22;1545;51.728;8.796;2024-02-14T10:41:16;12.10;95.80
3069;DHT22;1545;51.728;8.796;2024-02-14T10:43:42;12.20;95.40
3069;DHT22;1545;51.728;8.796;2024-02-14T10:46:20;12.20;95.40
3069;DHT22;1545;51.728;8.796;2024-02-14T10:48:47;12.20;95.40
3069;DHT22;1545;51.728;8.796;2024-02-14T10:51:13;12.20;95.30
3069;DHT22;1545;51.728;8.796;2024-02-14T10:53:41;12.20;95.30
3069;DHT22;1545;51.728;8.796;2024-02-14T10:56:12;12.20;95.60
3069;DHT22;1545;51.728;8.796;2024-02-14T10:58:42;12.20;96.20
3069;DHT22;1545;51.728;8.796;2024-02-14T11:01:08;12.20;96.70
3069;DHT22;1545;51.728;8.796;2024-02-14T11:03:34;12.30;96.80
3069;DHT22;1545;51.728;8.796;2024-02-14T11:06:02;12.20;96.90
3069;DHT22;1545;51.728;8.796;2024-02-14T11:08:29;12.20;97.50
3069;DHT22;1545;51.728;8.796;2024-02-14T11:10:58;12.10;97.60
3069;DHT22;1545;51.728;8.796;2024-02-14T11:13:28;12.00;97.80
3069;DHT22;1545;51.728;8.796;2024-02-14T11:15:57;12.00;97.70
3069;DHT22;1545;51.728;8.796;2024-02-14T11:18:26;12.00;97.70
3069;DHT22;1545;51.728;8.796;2024-02-14T11:20:52;12.10;97.90
3069;DHT22;1545;51.728;8.796;2024-02-14T11:23:22;12.10;97.70
3069;DHT22;1545;51.728;8.796;2024-02-14T11:25:47;12.10;97.40
3069;DHT22;1545;51.728;8.796;2024-02-14T11:28:23;12.10;97.20
3069;DHT22;1545;51.728;8.796;2024-02-14T11:30:49;12.20;97.00
3069;DHT22;1545;51.728;8.796;2024-02-14T11:33:20;12.30;96.90
3069;DHT22;1545;51.728;8.796;2024-02-14T11:35:50;12.30;96.60
3069;DHT22;1545;51.728;8.796;2024-02-14T11:38:17;12.40;96.50
3069;DHT22;1545;51.728;8.796;2024-02-14T11:40:43;12.50;96.00
3069;DHT22;1545;51.728;8.796;2024-02-14T11:43:16;12.50;95.90
3069;DHT22;1545;51.728;8.796;2024-02-14T11:45:45;12.50;95.80
3069;DHT22;1545;51.728;8.796;2024-02-14T11:48:15;12.50;95.20
3069;DHT22;1545;51.728;8.796;2024-02-14T11:50:43;12.50;95.30
3069;DHT22;1545;51.728;8.796;2024-02-14T11:53:10;12.50;95.70
3069;DHT22;1545;51.728;8.796;2024-02-14T11:55:37;12.50;96.20
3069;DHT22;1545;51.728;8.796;2024-02-14T11:58:09;12.40;97.00
3069;DHT22;1545;51.728;8.796;2024-02-14T12:00:37;12.30;98.20
3069;DHT22;1545;51.728;8.796;2024-02-14T12:03:06;12.10;98.80
3069;DHT22;1545;51.728;8.796;2024-02-14T12:05:32;12.00;98.80
3069;DHT22;1545;51.728;8.796;2024-02-14T12:07:59;11.90;98.80
3069;DHT22;1545;51.728;8.796;2024-02-14T12:10:24;11.80;98.80
3069;DHT22;1545;51.728;8.796;2024-02-14T12:12:51;11.70;98.80
3069;DHT22;1545;51.728;8.796;2024-02-14T12:15:16;11.70;98.80
3069;DHT22;1545;51.728;8.796;2024-02-14T12:17:42;11.70;98.80
3069;DHT22;1545;51.728;8.796;2024-02-14T12:20:11;11.60;98.80
3069;DHT22;1545;51.728;8.796;2024-02-14T12:22:39;11.60;98.80
3069;DHT22;1545;51.728;8.796;2024-02-14T12:25:06;11.70;98.80
3069;DHT22;1545;51.728;8.796;2024-02-14T12:27:33;11.70;98.80
3069;DHT22;1545;51.728;8.796;2024-02-14T12:29:59;11.70;98.80
3069;DHT22;1545;51.728;8.796;2024-02-14T12:32:27;11.70;98.80
3069;DHT22;1545;51.728;8.796;2024-02-14T12:34:55;11.60;98.80
3069;DHT22;1545;51.728;8.796;2024-02-14T12:37:21;11.60;98.80
3069;DHT22;1545;51.728;8.796;2024-02-14T12:39:47;11.50;98.80
3069;DHT22;1545;51.728;8.796;2024-02-14T12:42:13;11.50;98.80
3069;DHT22;1545;51.728;8.796;2024-02-14T12:44:38;11.50;98.80
3069;DHT22;1545;51.728;8.796;2024-02-14T12:47:04;11.50;98.80
3069;DHT22;1545;51.728;8.796;2024-02-14T12:49:30;11.50;98.80
3069;DHT22;1545;51.728;8.796;2024-02-14T12:51:58;11.50;98.80
3069;DHT22;1545;51.728;8.796;2024-02-14T12:54:23;11.50;98.80
3069;DHT22;1545;51.728;8.796;2024-02-14T12:56:49;11.60;98.80
3069;DHT22;1545;51.728;8.796;2024-02-14T12:59:17;11.70;98.80
3069;DHT22;1545;51.728;8.796;2024-02-14T13:01:43;11.80;98.80
3069;DHT22;1545;51.728;8.796;2024-02-14T13:04:09;11.80;98.80
3069;DHT22;1545;51.728;8.796;2024-02-14T13:06:35;11.90;98.80
3069;DHT22;1545;51.728;8.796;2024-02-14T13:09:02;11.90;98.80
3069;DHT22;1545;51.728;8.796;2024-02-14T13:11:27;11.90;98.80
3069;DHT22;1545;51.728;8.796;2024-02-14T13:13:53;12.00;98.80
3069;DHT22;1545;51.728;8.796;2024-02-14T13:16:19;11.90;98.80
3069;DHT22;1545;51.728;8.796;2024-02-14T13:18:45;11.90;98.80
3069;DHT22;1545;51.728;8.796;2024-02-14T13:21:10;11.80;98.80
3069;DHT22;1545;51.728;8.796;2024-02-14T13:23:35;11.90;98.80
3069;DHT22;1545;51.728;8.796;2024-02-14T13:26:01;11.90;98.80
3069;DHT22;1545;51.728;8.796;2024-02-14T13:28:29;12.00;98.80
3069;DHT22;1545;51.728;8.796;2024-02-14T13:30:54;12.00;98.80
3069;DHT22;1545;51.728;8.796;2024-02-14T13:33:20;12.10;98.80
3069;DHT22;1545;51.728;8.796;2024-02-14T13:35:45;12.10;98.80
3069;DHT22;1545;51.728;8.796;2024-02-14T13:38:11;12.20;98.80
3069;DHT22;1545;51.728;8.796;2024-02-14T13:40:36;12.30;98.80
3069;DHT22;1545;51.728;8.796;2024-02-14T13:43:02;12.30;98.80
3069;DHT22;1545;51.728;8.796;2024-02-14T13:45:40;12.40;98.80
3069;DHT22;1545;51.728;8.796;2024-02-14T13:48:07;12.40;98.80
3069;DHT22;1545;51.728;8.796;2024-02-14T13:50:34;12.40;98.80
3069;DHT22;1545;51.728;8.796;2024-02-14T13:52:59;12.40;98.80
3069;DHT22;1545;51.728;8.796;2024-02-14T13:55:25;12.30;98.80
3069;DHT22;1545;51.728;8.796;2024-02-14T13:57:50;12.40;98.80
3069;DHT22;1545;51.728;8.796;2024-02-14T14:00:16;12.30;98.80
3069;DHT22;1545;51.728;8.796;2024-02-14T14:02:42;12.40;98.80
3069;DHT22;1545;51.728;8.796;2024-02-14T14:05:09;12.40;98.80
3069;DHT22;1545;51.728;8.796;2024-02-14T14:07:38;12.40;98.80
3069;DHT22;1545;51.728;8.796;2024-02-14T14:10:04;12.40;98.80
3069;DHT22;1545;51.728;8.796;2024-02-14T14:12:30;12.40;98.80
3069;DHT22;1545;51.728;8.796;2024-02-14T14:14:56;12.30;98.80
3069;DHT22;1545;51.728;8.796;2024-02-14T14:17:22;12.30;98.80
3069;DHT22;1545;51.728;8.796;2024-02-14T14:19:48;12.30;98.80
3069;DHT22;1545;51.728;8.796;2024-02-14T14:22:14;12.20;98.80
3069;DHT22;1545;51.728;8.796;2024-02-14T14:24:41;12.20;98.80
3069;DHT22;1545;51.728;8.796;2024-02-14T14:27:07;12.20;98.80
3069;DHT22;1545;51.728;8.796;2024-02-14T14:29:39;12.20;98.80
3069;DHT22;1545;51.728;8.796;2024-02-14T14:32:07;12.20;98.80
3069;DHT22;1545;51.728;8.796;2024-02-14T14:34:32;12.20;98.80
3069;DHT22;1545;51.728;8.796;2024-02-14T14:36:58;12.10;98.80
3069;DHT22;1545;51.728;8.796;2024-02-14T14:39:23;12.20;98.80
3069;DHT22;1545;51.728;8.796;2024-02-14T14:41:49;12.20;98.80
3069;DHT22;1545;51.728;8.796;2024-02-14T14:44:16;12.20;98.80
3069;DHT22;1545;51.728;8.796;2024-02-14T14:46:42;12.20;98.80
3069;DHT22;1545;51.728;8.796;2024-02-14T14:49:10;12.30;98.80
3069;DHT22;1545;51.728;8.796;2024-02-14T14:51:37;12.30;98.80
3069;DHT22;1545;51.728;8.796;2024-02-14T14:54:04;12.30;98.80
3069;DHT22;1545;51.728;8.796;2024-02-14T14:56:30;12.40;98.80
3069;DHT22;1545;51.728;8.796;2024-02-14T14:58:55;12.50;98.80
3069;DHT22;1545;51.728;8.796;2024-02-14T15:01:22;12.50;98.80
3069;DHT22;1545;51.728;8.796;2024-02-14T15:03:47;12.60;98.80
3069;DHT22;1545;51.728;8.796;2024-02-14T15:06:13;12.70;98.80
3069;DHT22;1545;51.728;8.796;2024-02-14T15:08:40;12.70;98.80
3069;DHT22;1545;51.728;8.796;2024-02-14T15:11:08;12.70;98.80
3069;DHT22;1545;51.728;8.796;2024-02-14T15:13:34;12.60;98.80
3069;DHT22;1545;51.728;8.796;2024-02-14T15:15:59;12.60;98.80
3069;DHT22;1545;51.728;8.796;2024-02-14T15:18:28;12.60;98.80
3069;DHT22;1545;51.728;8.796;2024-02-14T15:20:54;12.50;98.80
3069;DHT22;1545;51.728;8.796;2024-02-14T15:23:19;12.50;98.80
3069;DHT22;1545;51.728;8.796;2024-02-14T15:25:45;12.50;98.80
3069;DHT22;1545;51.728;8.796;2024-02-14T15:28:11;12.40;98.80
3069;DHT22;1545;51.728;8.796;2024-02-14T15:30:47;12.30;98.80
3069;DHT22;1545;51.728;8.796;2024-02-14T15:33:31;12.30;98.80
3069;DHT22;1545;51.728;8.796;2024-02-14T15:35:57;12.30;98.80
3069;DHT22;1545;51.728;8.796;2024-02-14T15:38:24;12.30;98.80
3069;DHT22;1545;51.728;8.796;2024-02-14T15:40:51;12.20;98.80
3069;DHT22;1545;51.728;8.796;2024-02-14T15:43:23;12.20;98.80
3069;DHT22;1545;51.728;8.796;2024-02-14T15:45:49;12.20;98.80
3069;DHT22;1545;51.728;8.796;2024-02-14T15:48:15;12.20;98.80
3069;DHT22;1545;51.728;8.796;2024-02-14T15:50:41;12.10;98.80
3069;DHT22;1545;51.728;8.796;2024-02-14T15:53:08;12.10;98.80
3069;DHT22;1545;51.728;8.796;2024-02-14T15:55:34;12.00;98.80
3069;DHT22;1545;51.728;8.796;2024-02-14T15:58:03;12.00;98.80
3069;DHT22;1545;51.728;8.796;2024-02-14T16:00:29;11.90;98.80
3069;DHT22;1545;51.728;8.796;2024-02-14T16:02:58;11.80;98.80
3069;DHT22;1545;51.728;8.796;2024-02-14T16:05:24;11.80;98.80
3069;DHT22;1545;51.728;8.796;2024-02-14T16:07:50;11.70;98.80
3069;DHT22;1545;51.728;8.796;2024-02-14T16:10:15;11.60;98.80
3069;DHT22;1545;51.728;8.796;2024-02-14T16:12:45;11.60;98.80
3069;DHT22;1545;51.728;8.796;2024-02-14T16:15:11;11.50;98.80
3069;DHT22;1545;51.728;8.796;2024-02-14T16:17:37;11.50;98.80